Time;durP1;ratioP1;P1;durP2;ratioP2;P2;SDS_P1;SDS_P2;PMS_P1;PMS_P2;Temp;Humidity;BMP_temperature;BMP_pressure;BME280_temperature;BME280_humidity;BME280_pressure;Samples;Min_cycle;Max_cycle;Signal;HPM_P1;HPM_P2
2023/06/07 00:02:00;;;;;;;15.45;13.85;;;19.90;99.90;;;;;;5098191;28;20032;-49
2023/06/07 00:04:25;;;;;;;15.50;13.15;;;19.80;99.90;;;;;;5106934;28;20535;-47
2023/06/07 00:06:56;;;;;;;17.17;14.35;;;19.70;99.90;;;;;;5103598;28;20371;-47
2023/06/07 00:09:22;;;;;;;17.33;14.90;;;19.70;99.90;;;;;;5099073;28;20043;-47
2023/06/07 00:11:48;;;;;;;15.30;13.70;;;19.70;99.90;;;;;;5105889;28;20493;-47
2023/06/07 00:14:14;;;;;;;16.45;14.80;;;19.70;99.90;;;;;;5079920;28;20039;-50
2023/06/07 00:16:40;;;;;;;16.10;14.40;;;19.70;99.90;;;;;;5103158;28;20035;-47
2023/06/07 00:19:06;;;;;;;16.20;14.70;;;19.70;99.90;;;;;;5078139;28;20073;-47
2023/06/07 00:21:32;;;;;;;16.05;14.55;;;19.70;99.90;;;;;;5105814;28;20042;-47
2023/06/07 00:23:58;;;;;;;16.38;14.50;;;19.70;99.90;;;;;;5084354;28;20032;-47
2023/06/07 00:26:24;;;;;;;19.33;16.48;;;19.70;99.90;;;;;;5111792;28;20325;-49
2023/06/07 00:28:51;;;;;;;16.95;15.18;;;19.60;99.90;;;;;;5068591;28;20407;-47
2023/06/07 00:31:17;;;;;;;17.95;15.25;;;19.60;99.90;;;;;;5085843;28;20027;-47
2023/06/07 00:33:43;;;;;;;17.15;15.35;;;19.60;99.90;;;;;;5082507;27;20031;-47
2023/06/07 00:36:09;;;;;;;17.02;15.32;;;19.60;99.90;;;;;;5133729;27;20023;-47
2023/06/07 00:38:37;;;;;;;18.80;16.48;;;19.60;99.90;;;;;;5107971;28;20104;-47
2023/06/07 00:41:06;;;;;;;18.55;16.60;;;19.60;99.90;;;;;;5113255;28;20020;-47
2023/06/07 00:43:33;;;;;;;19.75;16.95;;;19.50;99.90;;;;;;5094925;28;20036;-48
2023/06/07 00:45:59;;;;;;;18.35;16.25;;;19.60;99.90;;;;;;5113004;28;20039;-50
2023/06/07 00:48:26;;;;;;;20.87;16.93;;;19.50;99.90;;;;;;5113189;28;20028;-47
2023/06/07 00:50:52;;;;;;;18.55;16.65;;;19.50;99.90;;;;;;5121213;27;20027;-48
2023/06/07 00:53:18;;;;;;;19.65;17.02;;;19.50;99.90;;;;;;5133634;27;20365;-47
2023/06/07 00:55:43;;;;;;;21.27;17.58;;;19.50;99.90;;;;;;5133406;27;20029;-47
2023/06/07 00:58:11;;;;;;;21.00;17.55;;;19.50;99.90;;;;;;5115192;27;20080;-47
2023/06/07 01:00:37;;;;;;;21.83;18.23;;;19.50;99.90;;;;;;5097486;28;20118;-47
2023/06/07 01:03:05;;;;;;;23.42;19.05;;;19.50;99.90;;;;;;5094634;28;20054;-47
2023/06/07 01:05:32;;;;;;;20.40;18.30;;;19.40;99.90;;;;;;5081370;28;20494;-48
2023/06/07 01:07:58;;;;;;;18.67;16.73;;;19.40;99.90;;;;;;5086584;28;20085;-47
2023/06/07 01:10:24;;;;;;;22.40;18.27;;;19.40;99.90;;;;;;5093884;28;20031;-48
2023/06/07 01:12:54;;;;;;;20.93;18.73;;;19.50;99.90;;;;;;5086384;28;20119;-47
2023/06/07 01:15:20;;;;;;;24.17;17.88;;;19.40;99.90;;;;;;5101940;28;20067;-47
2023/06/07 01:17:47;;;;;;;22.15;19.42;;;19.50;99.90;;;;;;5106960;28;20035;-47
2023/06/07 01:20:20;;;;;;;22.02;18.02;;;19.40;99.90;;;;;;5093391;28;20385;-47
2023/06/07 01:22:48;;;;;;;26.15;19.48;;;19.40;99.90;;;;;;5093900;28;20056;-48
2023/06/07 01:25:14;;;;;;;23.75;20.65;;;19.40;99.90;;;;;;5085701;28;20423;-47
2023/06/07 01:27:43;;;;;;;22.30;19.95;;;19.40;99.90;;;;;;5090534;28;20024;-48
2023/06/07 01:30:11;;;;;;;22.27;19.92;;;19.40;99.90;;;;;;5080587;28;20127;-47
2023/06/07 01:32:40;;;;;;;23.75;20.35;;;19.40;99.90;;;;;;5093354;28;20028;-47
2023/06/07 01:35:08;;;;;;;21.20;19.08;;;19.30;99.90;;;;;;5084281;28;20077;-47
2023/06/07 01:37:35;;;;;;;24.10;20.38;;;19.30;99.90;;;;;;5100744;28;20140;-47
2023/06/07 01:40:03;;;;;;;;;;;19.30;99.90;;;;;;5112116;27;20108;-49
2023/06/07 01:42:29;;;;;;;;;;;19.30;99.90;;;;;;5127439;27;19911;-47
2023/06/07 01:44:57;;;;;;;24.77;21.48;;;19.30;99.90;;;;;;5111969;28;20401;-47
2023/06/07 01:47:23;;;;;;;24.05;21.48;;;19.30;99.90;;;;;;5112374;28;20120;-47
2023/06/07 01:49:49;;;;;;;23.15;20.73;;;19.30;99.90;;;;;;5093968;28;20023;-47
2023/06/07 01:52:15;;;;;;;23.98;21.38;;;19.30;99.90;;;;;;5112258;28;20032;-47
2023/06/07 01:54:43;;;;;;;23.10;20.70;;;19.30;99.90;;;;;;5099401;28;20164;-47
2023/06/07 01:57:27;;;;;;;24.08;20.92;;;19.40;99.90;;;;;;5114151;28;20558;-47
2023/06/07 02:00:05;;;;;;;24.92;21.50;;;19.40;99.90;;;;;;5114026;28;20046;-50
2023/06/07 02:03:18;;;;;;;24.58;21.95;;;19.50;99.90;;;;;;5122677;22;20052;-50
2023/06/07 02:05:58;;;;;;;26.83;21.45;;;19.50;99.90;;;;;;5058627;28;20099;-52
2023/06/07 02:08:32;;;;;;;25.83;22.08;;;19.50;99.90;;;;;;5056070;28;20485;-53
2023/06/07 02:11:00;;;;;;;24.13;21.48;;;19.50;99.90;;;;;;5063967;28;20029;-57
2023/06/07 02:13:35;;;;;;;24.63;22.13;;;19.50;99.90;;;;;;5063974;28;20025;-53
2023/06/07 02:16:04;;;;;;;23.65;20.98;;;19.50;99.90;;;;;;5061372;28;20029;-56
2023/06/07 02:18:32;;;;;;;25.27;21.65;;;19.50;99.90;;;;;;5055056;28;20059;-54
2023/06/07 02:20:58;;;;;;;24.67;22.08;;;19.50;99.90;;;;;;5061888;28;20109;-53
2023/06/07 02:23:24;;;;;;;25.42;21.95;;;19.50;99.90;;;;;;5062764;28;20112;-51
2023/06/07 02:25:50;;;;;;;26.02;22.40;;;19.40;99.90;;;;;;5059596;28;20025;-52
2023/06/07 02:28:16;;;;;;;24.23;21.73;;;19.40;99.90;;;;;;5070891;28;20036;-53
2023/06/07 02:30:42;;;;;;;25.40;22.48;;;19.40;99.90;;;;;;5065487;28;20037;-53
2023/06/07 02:33:13;;;;;;;25.30;22.63;;;19.40;99.90;;;;;;5072572;28;20032;-55
2023/06/07 02:35:40;;;;;;;26.20;22.00;;;19.40;99.90;;;;;;5055357;28;20036;-52
2023/06/07 02:38:08;;;;;;;24.98;21.30;;;19.40;99.90;;;;;;5061719;28;20495;-53
2023/06/07 02:40:37;;;;;;;25.90;22.95;;;19.30;99.90;;;;;;5047997;28;20120;-52
2023/06/07 02:43:02;;;;;;;23.80;21.30;;;19.30;99.90;;;;;;5066144;28;20431;-54
2023/06/07 02:45:28;;;;;;;25.17;22.48;;;19.30;99.90;;;;;;5064485;28;20027;-54
2023/06/07 02:47:54;;;;;;;26.15;22.27;;;19.30;99.90;;;;;;5058222;28;20024;-55
2023/06/07 02:50:24;;;;;;;;;;;19.30;99.90;;;;;;5043686;28;20029;-55
2023/06/07 02:52:52;;;;;;;26.52;21.85;;;19.30;99.90;;;;;;5054995;28;19961;-55
2023/06/07 02:55:18;;;;;;;27.10;21.45;;;19.30;99.90;;;;;;5058980;28;20039;-53
2023/06/07 02:57:45;;;;;;;23.87;19.37;;;19.30;99.90;;;;;;5067519;28;20123;-56
2023/06/07 03:00:12;;;;;;;30.42;22.35;;;19.30;99.90;;;;;;5055416;28;20025;-55
2023/06/07 03:02:53;;;;;;;26.60;22.02;;;19.20;99.90;;;;;;5040045;28;20029;-54
2023/06/07 03:05:19;;;;;;;25.20;21.43;;;19.20;99.90;;;;;;5047622;28;20020;-53
2023/06/07 03:07:50;;;;;;;26.92;20.80;;;19.20;99.90;;;;;;5041380;28;20036;-51
2023/06/07 03:10:16;;;;;;;26.13;21.77;;;19.20;99.90;;;;;;5068597;28;20151;-53
2023/06/07 03:12:42;;;;;;;24.25;21.65;;;19.20;99.90;;;;;;5065495;28;20474;-51
2023/06/07 03:15:08;;;;;;;25.42;21.55;;;19.20;99.90;;;;;;5058075;28;20131;-52
2023/06/07 03:17:37;;;;;;;27.75;21.13;;;19.20;99.90;;;;;;5053004;28;20025;-53
2023/06/07 03:20:06;;;;;;;;;;;19.20;99.90;;;;;;5061173;28;20111;-56
2023/06/07 03:22:32;;;;;;;25.33;22.55;;;19.20;99.90;;;;;;5072925;28;20002;-51
2023/06/07 03:25:03;;;;;;;25.08;20.75;;;19.30;99.90;;;;;;5071654;28;20028;-51
2023/06/07 03:27:32;;;;;;;23.98;21.27;;;19.30;99.90;;;;;;5066393;28;20555;-53
2023/06/07 03:30:03;;;;;;;24.80;22.20;;;19.40;99.90;;;;;;5055699;28;20434;-50
2023/06/07 03:32:32;;;;;;;23.27;20.02;;;19.40;99.90;;;;;;5064036;28;20025;-52
2023/06/07 03:34:58;;;;;;;24.27;21.77;;;19.40;99.90;;;;;;5064801;28;20568;-53
2023/06/07 03:37:24;;;;;;;21.80;19.48;;;19.40;99.90;;;;;;5065443;28;20120;-54
2023/06/07 03:39:50;;;;;;;23.03;20.53;;;19.40;99.90;;;;;;5058341;28;20395;-55
2023/06/07 03:42:16;;;;;;;22.77;19.73;;;19.40;99.90;;;;;;5035758;28;20069;-54
2023/06/07 03:44:42;;;;;;;24.33;20.80;;;19.40;99.90;;;;;;5056070;28;20028;-50
2023/06/07 03:47:08;;;;;;;28.55;20.95;;;19.40;99.90;;;;;;5057492;28;20290;-51
2023/06/07 03:49:34;;;;;;;22.87;20.37;;;19.40;99.90;;;;;;5062354;28;20037;-54
2023/06/07 03:52:01;;;;;;;30.08;21.17;;;19.40;99.90;;;;;;5066460;28;20115;-50
2023/06/07 03:54:28;;;;;;;24.75;19.52;;;19.40;99.90;;;;;;5069340;28;20494;-52
2023/06/07 03:56:56;;;;;;;23.95;20.00;;;19.40;99.90;;;;;;5053107;28;20021;-53
2023/06/07 03:59:24;;;;;;;20.88;18.63;;;19.40;99.90;;;;;;5052174;28;20024;-55
2023/06/07 04:01:49;;;;;;;20.52;17.95;;;19.40;99.90;;;;;;5050833;28;20060;-56
2023/06/07 04:04:15;;;;;;;19.90;17.80;;;19.40;99.90;;;;;;5051007;28;20563;-54
2023/06/07 04:06:41;;;;;;;22.43;18.33;;;19.40;99.90;;;;;;5051939;28;20033;-50
2023/06/07 04:09:08;;;;;;;20.20;16.20;;;19.50;99.90;;;;;;5052180;28;20032;-54
2023/06/07 04:11:34;;;;;;;;;;;19.50;99.90;;;;;;5052676;28;20395;-54
2023/06/07 04:14:00;;;;;;;22.75;18.83;;;19.40;99.90;;;;;;5051936;28;19908;-51
2023/06/07 04:16:29;;;;;;;18.80;16.80;;;19.40;99.90;;;;;;5051693;28;20056;-53
2023/06/07 04:18:55;;;;;;;18.30;16.27;;;19.50;99.90;;;;;;5051901;28;20021;-53
2023/06/07 04:21:22;;;;;;;19.42;17.30;;;19.50;99.90;;;;;;5051810;28;20036;-51
2023/06/07 04:23:47;;;;;;;21.88;17.85;;;19.50;99.90;;;;;;5051789;28;20029;-54
2023/06/07 04:26:21;;;;;;;20.63;18.42;;;19.50;99.90;;;;;;5051620;28;20041;-56
2023/06/07 04:28:49;;;;;;;19.90;17.70;;;19.60;99.90;;;;;;5052944;28;20372;-57
2023/06/07 04:31:16;;;;;;;25.33;17.52;;;19.60;99.90;;;;;;5051556;28;20025;-54
2023/06/07 04:33:45;;;;;;;24.93;17.30;;;19.60;99.90;;;;;;5051503;28;20410;-54
2023/06/07 04:36:14;;;;;;;20.30;17.88;;;19.60;99.90;;;;;;5051407;28;20268;-55
2023/06/07 04:38:42;;;;;;;19.15;16.25;;;19.70;99.90;;;;;;5051424;28;20029;-55
2023/06/07 04:41:13;;;;;;;19.25;17.30;;;19.70;99.90;;;;;;5051350;28;20499;-57
2023/06/07 04:43:51;;;;;;;19.73;16.90;;;19.80;99.90;;;;;;5051531;28;20284;-53
2023/06/07 04:46:25;;;;;;;18.85;15.68;;;19.90;99.90;;;;;;5051160;28;20040;-55
2023/06/07 04:48:51;;;;;;;17.13;15.23;;;19.90;99.90;;;;;;5051187;28;20411;-56
2023/06/07 04:51:20;;;;;;;18.95;16.67;;;20.00;99.90;;;;;;5051245;28;20112;-54
2023/06/07 04:53:49;;;;;;;19.48;17.02;;;20.00;99.90;;;;;;5051294;28;20048;-53
2023/06/07 04:56:19;;;;;;;17.83;15.70;;;20.10;99.90;;;;;;5051072;28;20075;-54
2023/06/07 04:58:47;;;;;;;18.08;14.68;;;20.10;99.90;;;;;;5051111;28;20059;-56
2023/06/07 05:01:17;;;;;;;21.38;15.68;;;20.20;99.90;;;;;;5034837;28;20044;-54
2023/06/07 05:03:43;;;;;;;17.23;14.55;;;20.20;99.90;;;;;;5051031;28;20032;-56
2023/06/07 05:06:11;;;;;;;20.60;15.50;;;20.20;99.90;;;;;;5050719;28;20043;-57
2023/06/07 05:08:37;;;;;;;21.15;15.65;;;20.20;99.90;;;;;;5050913;28;20563;-56
2023/06/07 05:11:04;;;;;;;17.75;15.63;;;20.20;99.90;;;;;;5051065;28;20052;-50
2023/06/07 05:13:31;;;;;;;21.13;17.20;;;20.20;99.90;;;;;;5052135;28;20044;-53
2023/06/07 05:16:01;;;;;;;19.63;15.57;;;20.10;99.90;;;;;;5034354;28;20051;-56
2023/06/07 05:18:27;;;;;;;21.38;17.27;;;20.10;99.90;;;;;;5050637;28;20067;-52
2023/06/07 05:20:54;;;;;;;;;;;20.00;99.90;;;;;;5051259;28;20052;-55
2023/06/07 05:23:20;;;;;;;19.45;16.55;;;19.90;99.90;;;;;;5050722;28;19908;-57
2023/06/07 05:25:50;;;;;;;21.83;17.42;;;19.80;99.90;;;;;;5050399;28;20451;-55
2023/06/07 05:28:16;;;;;;;19.77;17.50;;;19.70;99.90;;;;;;5050660;28;20503;-53
2023/06/07 05:30:48;;;;;;;21.15;17.33;;;19.70;99.90;;;;;;5050511;28;20446;-55
2023/06/07 05:33:14;;;;;;;22.73;18.20;;;19.70;99.90;;;;;;5050468;28;20041;-56
2023/06/07 05:35:44;;;;;;;21.15;18.85;;;19.70;99.90;;;;;;5050415;28;20094;-56
2023/06/07 05:38:11;;;;;;;24.20;19.58;;;19.80;99.90;;;;;;5050515;28;20029;-56
2023/06/07 05:40:36;;;;;;;22.63;19.13;;;19.80;99.90;;;;;;5050420;28;20070;-53
2023/06/07 05:43:03;;;;;;;23.35;19.52;;;19.80;99.90;;;;;;5050447;28;20021;-55
2023/06/07 05:45:30;;;;;;;26.02;21.83;;;19.80;99.90;;;;;;5050218;28;20025;-53
2023/06/07 05:47:56;;;;;;;37.78;23.60;;;19.80;99.90;;;;;;5050359;28;20557;-57
2023/06/07 05:50:23;;;;;;;36.30;23.77;;;19.70;99.90;;;;;;5033811;28;20164;-52
2023/06/07 05:52:57;;;;;;;32.28;21.80;;;19.80;99.90;;;;;;5050246;28;20033;-53
2023/06/07 05:55:27;;;;;;;37.25;22.98;;;19.80;99.90;;;;;;5050202;28;20143;-55
2023/06/07 05:57:54;;;;;;;30.80;21.67;;;19.90;99.90;;;;;;5051432;28;20436;-53
2023/06/07 06:00:20;;;;;;;31.02;21.75;;;19.90;99.90;;;;;;5050955;28;20028;-56
2023/06/07 06:02:46;;;;;;;28.03;22.07;;;20.00;99.90;;;;;;5051345;28;20074;-55
2023/06/07 06:05:12;;;;;;;30.90;21.83;;;20.10;99.90;;;;;;5051355;28;20406;-52
2023/06/07 06:07:38;;;;;;;30.00;22.08;;;20.20;99.90;;;;;;5051317;28;20040;-57
2023/06/07 06:10:05;;;;;;;39.65;22.90;;;20.20;99.90;;;;;;5051280;28;20032;-52
2023/06/07 06:12:31;;;;;;;30.45;21.85;;;20.20;99.90;;;;;;5051249;28;20087;-56
2023/06/07 06:14:58;;;;;;;28.27;21.80;;;20.30;99.90;;;;;;5051110;28;20442;-53
2023/06/07 06:17:24;;;;;;;25.58;21.65;;;20.40;99.90;;;;;;5051356;28;20025;-53
2023/06/07 06:19:50;;;;;;;29.25;21.48;;;20.30;99.90;;;;;;5050132;28;20040;-56
2023/06/07 06:22:16;;;;;;;27.63;22.27;;;20.30;99.90;;;;;;5051160;28;20093;-54
2023/06/07 06:24:42;;;;;;;25.70;22.08;;;20.40;99.90;;;;;;5051128;28;20033;-54
2023/06/07 06:27:09;;;;;;;23.13;20.50;;;20.40;99.90;;;;;;5051243;28;20083;-57
2023/06/07 06:29:35;;;;;;;26.27;22.83;;;20.40;99.90;;;;;;5049918;28;20041;-56
2023/06/07 06:32:01;;;;;;;24.52;21.10;;;20.40;99.90;;;;;;5049952;28;20040;-57
2023/06/07 06:34:28;;;;;;;27.38;22.38;;;20.50;99.90;;;;;;5049823;28;20040;-54
2023/06/07 06:36:54;;;;;;;23.88;20.23;;;20.60;99.90;;;;;;5050904;28;20029;-53
2023/06/07 06:39:22;;;;;;;27.85;21.00;;;20.70;99.90;;;;;;5051247;28;20036;-53
2023/06/07 06:41:47;;;;;;;25.08;19.80;;;20.80;99.90;;;;;;5051049;28;20055;-56
2023/06/07 06:44:20;;;;;;;25.27;21.42;;;20.90;99.90;;;;;;5049874;28;20037;-54
2023/06/07 06:46:45;;;;;;;23.65;19.98;;;21.10;99.90;;;;;;5051040;28;20039;-54
2023/06/07 06:49:11;;;;;;;24.17;21.02;;;21.20;99.90;;;;;;5049766;28;20123;-56
2023/06/07 06:51:37;;;;;;;29.75;22.45;;;21.30;99.90;;;;;;5049678;28;20029;-52
2023/06/07 06:54:03;;;;;;;32.47;24.58;;;21.40;99.90;;;;;;5049927;28;20669;-55
2023/06/07 06:56:29;;;;;;;39.83;28.93;;;21.50;99.90;;;;;;5050702;28;20365;-55
2023/06/07 06:58:55;;;;;;;34.83;26.02;;;21.50;99.90;;;;;;5050847;28;20032;-55
2023/06/07 07:01:21;;;;;;;35.72;26.38;;;21.40;99.90;;;;;;5049591;28;20029;-54
2023/06/07 07:03:47;;;;;;;34.17;25.60;;;21.50;99.90;;;;;;5049555;28;20078;-56
2023/06/07 07:06:13;;;;;;;33.10;24.30;;;21.60;99.90;;;;;;5049494;28;20051;-57
2023/06/07 07:08:39;;;;;;;36.22;27.70;;;21.70;99.90;;;;;;5050886;28;20524;-53
2023/06/07 07:11:05;;;;;;;32.90;26.10;;;21.80;99.90;;;;;;5050753;28;20507;-55
2023/06/07 07:13:31;;;;;;;36.00;26.10;;;21.80;99.90;;;;;;5053682;28;20028;-56
2023/06/07 07:15:57;;;;;;;30.75;24.13;;;21.80;99.90;;;;;;5054287;28;20518;-57
2023/06/07 07:18:23;;;;;;;33.97;26.52;;;21.90;99.90;;;;;;5054272;28;20033;-55
2023/06/07 07:20:49;;;;;;;29.93;24.70;;;22.10;99.90;;;;;;5054222;28;20361;-52
2023/06/07 07:23:16;;;;;;;28.97;24.63;;;22.10;99.90;;;;;;5053105;28;20100;-52
2023/06/07 07:25:42;;;;;;;30.75;25.20;;;22.20;99.90;;;;;;5053964;28;20025;-54
2023/06/07 07:28:08;;;;;;;39.65;28.95;;;22.10;99.90;;;;;;5036275;28;20025;-54
2023/06/07 07:30:33;;;;;;;33.70;28.63;;;22.20;99.90;;;;;;5054071;28;20399;-56
2023/06/07 07:33:00;;;;;;;35.75;27.90;;;22.20;99.90;;;;;;5054127;28;20143;-55
2023/06/07 07:35:26;;;;;;;;;;;22.30;99.90;;;;;;5054320;28;20021;-57
2023/06/07 07:37:55;;;;;;;36.42;27.17;;;22.30;99.90;;;;;;5054052;28;20301;-55
2023/06/07 07:40:21;;;;;;;36.47;29.20;;;22.40;99.90;;;;;;5053907;28;20469;-56
2023/06/07 07:42:46;;;;;;;36.17;29.23;;;22.50;99.90;;;;;;5052495;28;20064;-56
2023/06/07 07:45:14;;;;;;;38.17;29.27;;;22.70;99.90;;;;;;5053670;28;20067;-55
2023/06/07 07:47:40;;;;;;;36.35;28.23;;;22.80;99.90;;;;;;5052644;28;20040;-53
2023/06/07 07:50:07;;;;;;;37.65;29.23;;;23.00;99.90;;;;;;5052665;28;20032;-56
2023/06/07 07:52:33;;;;;;;35.80;28.42;;;23.00;99.90;;;;;;5053682;28;20033;-55
2023/06/07 07:55:00;;;;;;;36.95;27.98;;;23.10;99.90;;;;;;5053529;28;20037;-56
2023/06/07 07:57:25;;;;;;;33.80;25.30;;;23.00;99.90;;;;;;5053541;28;20510;-55
2023/06/07 07:59:51;;;;;;;44.07;28.00;;;22.90;99.90;;;;;;5053570;28;20033;-54
2023/06/07 08:02:17;;;;;;;34.20;27.03;;;22.90;99.90;;;;;;5053883;28;20056;-57
2023/06/07 08:04:43;;;;;;;38.47;27.43;;;22.90;99.90;;;;;;5053347;28;20025;-55
2023/06/07 08:07:09;;;;;;;37.13;27.80;;;22.90;99.90;;;;;;5053368;28;20033;-56
2023/06/07 08:09:35;;;;;;;36.10;26.17;;;22.90;99.90;;;;;;5053560;28;20025;-54
2023/06/07 08:12:01;;;;;;;35.43;26.40;;;23.00;99.90;;;;;;5053239;28;20033;-57
2023/06/07 08:14:27;;;;;;;38.72;28.40;;;23.00;99.90;;;;;;5053363;28;20032;-56
2023/06/07 08:16:53;;;;;;;36.57;26.47;;;23.10;99.90;;;;;;5052928;28;20032;-57
2023/06/07 08:19:18;;;;;;;32.40;25.80;;;23.10;99.90;;;;;;5053261;28;20426;-56
2023/06/07 08:21:47;;;;;;;34.67;25.70;;;23.20;99.90;;;;;;5053061;28;20029;-53
2023/06/07 08:24:13;;;;;;;35.42;25.92;;;23.20;99.90;;;;;;5052726;28;20121;-57
2023/06/07 08:26:38;;;;;;;41.07;27.77;;;23.20;99.90;;;;;;5051647;28;20675;-55
2023/06/07 08:29:05;;;;;;;34.33;26.00;;;23.20;99.90;;;;;;5052994;28;20036;-55
2023/06/07 08:31:31;;;;;;;38.27;28.07;;;23.20;99.90;;;;;;5051723;28;20033;-55
2023/06/07 08:33:57;;;;;;;34.25;26.35;;;23.20;99.90;;;;;;5052945;28;20291;-58
2023/06/07 08:36:23;;;;;;;33.40;25.73;;;23.20;99.90;;;;;;5052644;28;20137;-56
2023/06/07 08:38:49;;;;;;;32.83;25.30;;;23.20;99.90;;;;;;5052990;28;20036;-57
2023/06/07 08:41:15;;;;;;;31.83;26.23;;;23.30;99.80;;;;;;5035096;28;20029;-55
2023/06/07 08:43:44;;;;;;;31.98;25.35;;;23.40;99.90;;;;;;5052832;28;20033;-58
2023/06/07 08:46:11;;;;;;;32.40;25.35;;;23.40;99.70;;;;;;5052533;28;20029;-57
2023/06/07 08:48:37;;;;;;;;;;;23.50;99.40;;;;;;5053128;28;20033;-56
2023/06/07 08:51:06;;;;;;;32.83;24.73;;;23.50;99.20;;;;;;5052472;28;19912;-56
2023/06/07 08:53:55;;;;;;;33.75;24.50;;;23.50;98.50;;;;;;5052517;28;20445;-61
2023/06/07 08:56:24;;;;;;;36.70;24.98;;;23.20;98.50;;;;;;5051059;28;20491;-61
2023/06/07 08:58:50;;;;;;;30.92;23.67;;;23.20;98.50;;;;;;5052278;28;20395;-61
2023/06/07 09:01:20;;;;;;;27.30;22.60;;;23.20;98.70;;;;;;5051067;28;20060;-62
2023/06/07 09:03:52;;;;;;;30.13;22.30;;;23.20;98.10;;;;;;5052348;28;20102;-58
2023/06/07 09:06:24;;;;;;;28.73;24.55;;;23.40;98.40;;;;;;5052609;28;20033;-60
2023/06/07 09:08:50;;;;;;;29.20;22.40;;;23.50;98.40;;;;;;5052287;28;20442;-58
2023/06/07 09:11:16;;;;;;;34.33;23.47;;;23.60;98.00;;;;;;5052154;28;20044;-60
2023/06/07 09:13:42;;;;;;;29.27;23.23;;;23.70;97.50;;;;;;5052145;28;20271;-60
2023/06/07 09:16:12;;;;;;;28.53;22.50;;;23.70;97.50;;;;;;5051890;28;20346;-57
2023/06/07 09:18:53;;;;;;;27.05;22.23;;;23.80;96.70;;;;;;5052027;28;20057;-57
2023/06/07 09:21:23;;;;;;;27.02;20.77;;;23.80;96.70;;;;;;5050678;28;20499;-58
2023/06/07 09:23:53;;;;;;;24.67;20.35;;;23.80;95.70;;;;;;5052424;28;20033;-59
2023/06/07 09:26:22;;;;;;;28.40;22.10;;;23.80;96.00;;;;;;5051770;28;20078;-60
2023/06/07 09:28:49;;;;;;;26.73;20.80;;;23.90;95.70;;;;;;5051917;28;20029;-56
2023/06/07 09:31:32;;;;;;;25.90;20.58;;;24.00;95.40;;;;;;5051884;28;20056;-57
2023/06/07 09:33:58;;;;;;;30.45;23.90;;;24.10;94.40;;;;;;5051861;28;20044;-59
2023/06/07 09:36:27;;;;;;;29.27;23.63;;;24.20;95.10;;;;;;5050996;28;20074;-59
2023/06/07 09:38:52;;;;;;;33.38;25.42;;;24.10;95.80;;;;;;5051733;28;20286;-57
2023/06/07 09:41:18;;;;;;;29.27;24.00;;;24.20;95.40;;;;;;5051670;28;20025;-61
2023/06/07 09:43:51;;;;;;;32.23;24.83;;;24.20;95.20;;;;;;5051757;28;20045;-59
2023/06/07 09:46:18;;;;;;;32.15;25.35;;;24.10;95.30;;;;;;5051522;28;20143;-61
2023/06/07 09:48:48;;;;;;;30.95;25.75;;;24.20;95.70;;;;;;5051722;28;20029;-59
2023/06/07 09:51:15;;;;;;;34.05;23.58;;;24.30;95.00;;;;;;5051547;28;20041;-60
2023/06/07 09:53:57;;;;;;;28.77;23.13;;;24.20;93.50;;;;;;5051488;28;20163;-58
2023/06/07 09:56:24;;;;;;;31.65;24.20;;;24.30;94.50;;;;;;5051398;28;20511;-58
2023/06/07 09:59:23;;;;;;;26.65;22.25;;;24.40;94.10;;;;;;5051436;28;20074;-58
2023/06/07 10:01:51;;;;;;;31.73;24.60;;;24.50;93.70;;;;;;5051315;28;20103;-57
2023/06/07 10:04:17;;;;;;;30.13;23.42;;;24.70;93.10;;;;;;5051472;28;20104;-54
2023/06/07 10:06:45;;;;;;;29.33;23.47;;;24.80;93.30;;;;;;5051296;28;20105;-58
2023/06/07 10:09:12;;;;;;;26.83;21.50;;;24.90;92.70;;;;;;5051346;28;20021;-58
2023/06/07 10:11:41;;;;;;;27.98;22.23;;;24.90;92.20;;;;;;5051357;28;20388;-58
2023/06/07 10:14:10;;;;;;;27.10;21.45;;;25.00;91.70;;;;;;5054332;28;20085;-57
2023/06/07 10:16:39;;;;;;;25.45;22.67;;;25.20;90.60;;;;;;5050604;28;20407;-56
2023/06/07 10:19:25;;;;;;;29.17;22.90;;;25.10;90.00;;;;;;5031780;28;20025;-57
2023/06/07 10:21:55;;;;;;;26.35;20.75;;;25.10;90.00;;;;;;5050502;28;20021;-58
2023/06/07 10:24:25;;;;;;;25.75;21.80;;;25.00;88.80;;;;;;5049212;28;20033;-58
2023/06/07 10:26:55;;;;;;;23.40;20.40;;;25.10;90.30;;;;;;5048609;28;20033;-57
2023/06/07 10:29:46;;;;;;;27.50;22.83;;;25.10;89.60;;;;;;5035096;28;20086;-56
2023/06/07 10:32:27;;;;;;;25.65;22.15;;;25.30;90.10;;;;;;5031145;28;20029;-58
2023/06/07 10:34:55;;;;;;;24.30;20.02;;;25.30;89.40;;;;;;5031148;28;20033;-58
2023/06/07 10:37:21;;;;;;;22.33;18.35;;;25.40;88.30;;;;;;5043975;28;20060;-57
2023/06/07 10:39:48;;;;;;;;;;;25.40;86.40;;;;;;5061754;28;20024;-59
2023/06/07 10:42:15;;;;;;;23.40;20.75;;;25.30;86.60;;;;;;5069641;28;20370;-58
2023/06/07 10:44:42;;;;;;;24.20;19.85;;;25.40;86.60;;;;;;5064760;28;20021;-60
2023/06/07 10:47:29;;;;;;;25.60;20.98;;;25.50;86.80;;;;;;5051739;28;20038;-59
2023/06/07 10:49:55;;;;;;;22.63;19.23;;;25.80;85.20;;;;;;5054878;28;20106;-59
2023/06/07 10:52:26;;;;;;;25.23;21.60;;;25.70;85.30;;;;;;5054839;28;20040;-59
2023/06/07 10:54:52;;;;;;;23.88;20.92;;;25.80;83.70;;;;;;5054548;28;20572;-59
2023/06/07 10:57:36;;;;;;;26.50;22.25;;;26.00;83.10;;;;;;5064315;28;20036;-59
2023/06/07 11:00:30;;;;;;;27.52;22.25;;;26.10;81.40;;;;;;5074770;28;20116;-59
2023/06/07 11:03:05;;;;;;;25.35;19.98;;;26.30;81.90;;;;;;5055412;28;20038;-59
2023/06/07 11:05:53;;;;;;;24.90;19.75;;;26.40;82.50;;;;;;5064133;28;20020;-55
2023/06/07 11:08:27;;;;;;;26.23;19.42;;;26.40;78.50;;;;;;5064328;28;20035;-59
2023/06/07 11:10:58;;;;;;;21.45;18.02;;;26.40;78.70;;;;;;5059653;28;20407;-58
2023/06/07 11:13:26;;;;;;;22.83;18.88;;;26.30;76.40;;;;;;5057424;28;20037;-59
2023/06/07 11:15:51;;;;;;;23.35;18.80;;;26.30;77.00;;;;;;5057064;28;20403;-58
2023/06/07 11:18:17;;;;;;;26.47;21.60;;;26.30;79.00;;;;;;5062705;28;20035;-57
2023/06/07 11:20:44;;;;;;;24.20;20.83;;;26.30;78.30;;;;;;5062302;28;20435;-58
2023/06/07 11:23:28;;;;;;;28.58;24.58;;;26.30;77.20;;;;;;5055856;28;20035;-60
2023/06/07 11:26:14;;;;;;;31.33;25.73;;;26.40;77.10;;;;;;5068799;28;20376;-58
2023/06/07 11:28:41;;;;;;;20.90;17.60;;;26.40;75.80;;;;;;5063178;28;20395;-59
2023/06/07 11:31:11;;;;;;;24.13;17.77;;;26.30;72.20;;;;;;5068266;28;20028;-59
2023/06/07 11:33:37;;;;;;;21.15;17.83;;;26.50;72.90;;;;;;5039122;28;20028;-60
2023/06/07 11:36:09;;;;;;;25.17;18.20;;;26.70;73.00;;;;;;5070520;28;20494;-56
2023/06/07 11:38:35;;;;;;;22.77;19.42;;;26.00;71.10;;;;;;5064156;28;20040;-59
2023/06/07 11:41:03;;;;;;;26.43;21.17;;;26.20;73.80;;;;;;5060689;28;20025;-60
2023/06/07 11:43:31;;;;;;;25.58;20.23;;;26.40;74.80;;;;;;5069292;28;20032;-59
2023/06/07 11:45:58;;;;;;;26.77;21.13;;;26.50;74.40;;;;;;5059302;28;20123;-60
2023/06/07 11:48:30;;;;;;;26.95;22.30;;;26.40;72.70;;;;;;5067017;28;20048;-60
2023/06/07 11:50:57;;;;;;;27.63;21.98;;;26.40;74.10;;;;;;5058435;28;20033;-56
2023/06/07 11:53:23;;;;;;;23.77;20.20;;;26.60;74.60;;;;;;5067960;28;20029;-59
2023/06/07 11:55:49;;;;;;;28.43;21.60;;;26.80;75.60;;;;;;5038550;28;20029;-57
2023/06/07 11:58:15;;;;;;;25.55;22.00;;;27.00;74.90;;;;;;5067423;28;20027;-56
2023/06/07 12:00:44;;;;;;;22.17;19.35;;;27.00;73.00;;;;;;5059018;28;20074;-59
2023/06/07 12:03:10;;;;;;;24.35;19.17;;;27.00;72.40;;;;;;5060777;28;20033;-57
2023/06/07 12:05:37;;;;;;;20.23;17.65;;;27.10;72.60;;;;;;5069291;28;20028;-59
2023/06/07 12:08:05;;;;;;;;;;;27.20;72.20;;;;;;5056973;28;20032;-60
2023/06/07 12:10:36;;;;;;;19.30;16.55;;;27.40;71.30;;;;;;5066927;28;19909;-59
2023/06/07 12:13:16;;;;;;;16.98;15.18;;;27.60;71.30;;;;;;5060449;28;20090;-58
2023/06/07 12:15:53;;;;;;;17.27;14.65;;;27.80;68.70;;;;;;5064456;28;20037;-57
2023/06/07 12:18:25;;;;;;;15.63;13.40;;;27.70;65.90;;;;;;5067570;28;20138;-58
2023/06/07 12:21:00;;;;;;;15.27;13.07;;;27.70;68.70;;;;;;5047606;28;20271;-60
2023/06/07 12:23:26;;;;;;;13.20;11.80;;;27.90;69.60;;;;;;5058299;28;20056;-60
2023/06/07 12:26:08;;;;;;;16.47;11.77;;;28.10;65.30;;;;;;5068979;28;20079;-59
2023/06/07 12:28:35;;;;;;;12.00;8.20;;;28.20;62.60;;;;;;5059991;28;20537;-58
2023/06/07 12:31:00;;;;;;;10.00;8.40;;;28.20;60.70;;;;;;5067107;28;20060;-59
2023/06/07 12:33:27;;;;;;;9.75;8.75;;;28.10;59.20;;;;;;5058035;28;20106;-59
2023/06/07 12:35:53;;;;;;;7.95;7.15;;;28.20;59.10;;;;;;5068800;28;20036;-57
2023/06/07 12:38:20;;;;;;;8.82;7.93;;;28.10;58.40;;;;;;5057889;28;20407;-60